Time;durP1;ratioP1;P1;durP2;ratioP2;P2;SDS_P1;SDS_P2;PMS_P1;PMS_P2;Temp;Humidity;BMP_temperature;BMP_pressure;BME280_temperature;BME280_humidity;BME280_pressure;Samples;Min_cycle;Max_cycle;Signal;HPM_P1;HPM_P2
2022/11/29 00:01:20;;;;;;;93.07;31.27;;;8.10;99.90;;;;;;4956273;28;93553;-32
2022/11/29 00:03:46;;;;;;;;;;;8.20;99.90;;;;;;4956744;28;92936;-33
2022/11/29 00:06:15;;;;;;;81.00;30.65;;;8.20;99.90;;;;;;4958055;28;94650;-35
2022/11/29 00:08:41;;;;;;;56.20;25.35;;;8.20;99.90;;;;;;4956386;28;95273;-32
2022/11/29 00:11:13;;;;;;;146.65;33.10;;;8.20;99.90;;;;;;4955608;28;94216;-35
2022/11/29 00:13:39;;;;;;;87.88;29.33;;;8.20;99.90;;;;;;4955620;28;94429;-36
2022/11/29 00:16:10;;;;;;;110.82;34.95;;;8.20;99.90;;;;;;4956036;28;95801;-33
2022/11/29 00:18:36;;;;;;;93.10;30.98;;;8.20;99.90;;;;;;4955068;28;95801;-34
2022/11/29 00:21:08;;;;;;;77.57;31.13;;;8.20;99.90;;;;;;4956505;28;93763;-34
2022/11/29 00:23:34;;;;;;;92.43;28.52;;;8.20;99.90;;;;;;4955404;28;94685;-36
2022/11/29 00:26:07;;;;;;;94.55;28.55;;;8.20;99.90;;;;;;4956649;28;94987;-32
2022/11/29 00:28:33;;;;;;;78.10;30.60;;;8.20;99.90;;;;;;4955847;28;95141;-35
2022/11/29 00:30:59;;;;;;;124.30;29.45;;;8.20;99.90;;;;;;4957278;28;94217;-33
2022/11/29 00:33:24;;;;;;;101.35;31.35;;;8.20;99.90;;;;;;4955285;28;91400;-35
2022/11/29 00:35:50;;;;;;;94.88;29.15;;;8.20;99.90;;;;;;4956020;28;95187;-33
2022/11/29 00:38:16;;;;;;;93.88;29.70;;;8.20;99.90;;;;;;4955882;28;95079;-32
2022/11/29 00:40:41;;;;;;;96.78;32.45;;;8.20;99.90;;;;;;4955379;28;94132;-32
2022/11/29 00:43:07;;;;;;;127.28;32.65;;;8.20;99.90;;;;;;4956176;28;93007;-34
2022/11/29 00:45:32;;;;;;;120.53;32.42;;;8.20;99.90;;;;;;4954713;28;94854;-33
2022/11/29 00:47:58;;;;;;;88.15;32.30;;;8.20;99.90;;;;;;4955641;28;94743;-35
2022/11/29 00:50:23;;;;;;;90.93;32.13;;;8.20;99.90;;;;;;4955668;28;93692;-37
2022/11/29 00:52:49;;;;;;;89.35;29.80;;;8.20;99.90;;;;;;4956427;28;92127;-33
2022/11/29 00:55:15;;;;;;;99.28;30.15;;;8.20;99.90;;;;;;4955378;28;96558;-34
2022/11/29 00:57:40;;;;;;;82.00;30.27;;;8.20;99.90;;;;;;4955797;28;93413;-33
2022/11/29 01:00:06;;;;;;;80.28;29.00;;;8.10;99.90;;;;;;4956647;28;93083;-32
2022/11/29 01:02:32;;;;;;;94.60;32.33;;;8.20;99.90;;;;;;4955763;28;93959;-33
2022/11/29 01:04:58;;;;;;;92.75;31.80;;;8.20;99.90;;;;;;4954847;28;95749;-32
2022/11/29 01:07:23;;;;;;;112.38;29.83;;;8.20;99.90;;;;;;4955006;28;95727;-36
2022/11/29 01:09:49;;;;;;;63.20;28.88;;;8.20;99.90;;;;;;4956078;28;93006;-33
2022/11/29 01:12:14;;;;;;;102.40;32.55;;;8.20;99.90;;;;;;4955396;28;94054;-33
2022/11/29 01:14:40;;;;;;;120.05;33.88;;;8.20;99.90;;;;;;4955249;28;94857;-34
2022/11/29 01:17:06;;;;;;;73.80;28.98;;;8.20;99.90;;;;;;4955339;28;94124;-32
2022/11/29 01:19:31;;;;;;;119.60;31.75;;;8.20;99.90;;;;;;4954363;28;95236;-32
2022/11/29 01:21:57;;;;;;;68.38;27.48;;;8.20;99.90;;;;;;4956382;28;93519;-33
2022/11/29 01:24:24;;;;;;;102.20;34.42;;;8.20;99.90;;;;;;4959081;28;94580;-34
2022/11/29 01:26:49;;;;;;;102.43;32.85;;;8.20;99.90;;;;;;4958371;28;94525;-36
2022/11/29 01:29:15;;;;;;;77.38;29.27;;;8.20;99.90;;;;;;4958721;28;93118;-35
2022/11/29 01:31:40;;;;;;;99.15;27.38;;;8.20;99.90;;;;;;4958197;28;94720;-32
2022/11/29 01:34:06;;;;;;;78.10;28.25;;;8.20;99.90;;;;;;4958422;28;95340;-32
2022/11/29 01:36:33;;;;;;;105.45;33.10;;;8.20;99.90;;;;;;4958206;28;94650;-32
2022/11/29 01:39:00;;;;;;;115.63;34.50;;;8.20;99.90;;;;;;4959011;28;92767;-32
2022/11/29 01:41:29;;;;;;;168.65;36.85;;;8.20;99.90;;;;;;4958357;28;92118;-34
2022/11/29 01:44:11;;;;;;;113.80;33.08;;;8.20;99.90;;;;;;4958506;28;94899;-35
2022/11/29 01:46:45;;;;;;;93.88;32.53;;;8.20;99.90;;;;;;4958207;28;94294;-36
2022/11/29 01:49:14;;;;;;;108.30;33.92;;;8.20;99.90;;;;;;4955085;28;93322;-32
2022/11/29 01:51:43;;;;;;;121.53;37.30;;;8.20;99.90;;;;;;4957953;28;92177;-33
2022/11/29 01:54:11;;;;;;;100.07;33.45;;;8.20;99.90;;;;;;4956995;28;96523;-33
2022/11/29 01:56:37;;;;;;;124.72;33.80;;;8.20;99.90;;;;;;4957303;28;95115;-32
2022/11/29 01:59:07;;;;;;;130.57;36.75;;;8.20;99.90;;;;;;4958781;28;93493;-34
2022/11/29 02:01:34;;;;;;;72.43;29.88;;;8.20;99.90;;;;;;4958127;28;94231;-33
2022/11/29 02:04:00;;;;;;;109.25;32.97;;;8.20;99.90;;;;;;4958384;28;95165;-34
2022/11/29 02:06:28;;;;;;;100.88;33.92;;;8.20;99.90;;;;;;4957039;28;94567;-32
2022/11/29 02:08:54;;;;;;;84.82;31.88;;;8.20;99.90;;;;;;4958362;28;94261;-33
2022/11/29 02:11:46;;;;;;;130.05;33.42;;;8.20;99.90;;;;;;4958769;28;91346;-33
2022/11/29 02:14:21;;;;;;;93.55;32.85;;;8.10;99.90;;;;;;4957787;28;94637;-35
2022/11/29 02:16:53;;;;;;;123.40;33.58;;;8.20;99.90;;;;;;4957599;28;94174;-34
2022/11/29 02:19:55;;;;;;;101.35;31.60;;;8.20;99.90;;;;;;4957979;28;94507;-34
2022/11/29 02:22:36;;;;;;;96.35;31.92;;;8.20;99.90;;;;;;4947597;28;94138;-34
2022/11/29 02:25:07;;;;;;;84.85;29.52;;;8.20;99.90;;;;;;4957703;28;94613;-33
2022/11/29 02:28:14;;;;;;;72.72;31.75;;;8.20;99.90;;;;;;4957494;28;94460;-34
2022/11/29 02:30:59;;;;;;;78.43;30.08;;;8.20;99.90;;;;;;4896536;28;93088;-34
2022/11/29 02:33:43;;;;;;;141.43;34.53;;;8.20;99.90;;;;;;4895736;28;92902;-35
2022/11/29 02:36:23;;;;;;;87.20;30.80;;;8.10;99.90;;;;;;4939124;28;94890;-33
2022/11/29 02:39:10;;;;;;;75.07;30.90;;;8.20;99.90;;;;;;4958018;28;94627;-35
2022/11/29 02:41:48;;;;;;;101.15;30.10;;;8.20;99.90;;;;;;4957647;28;93259;-34
2022/11/29 02:44:32;;;;;;;123.43;34.78;;;8.20;99.90;;;;;;4945710;28;95120;-33
2022/11/29 02:47:16;;;;;;;146.63;33.60;;;8.20;99.90;;;;;;4956655;28;95749;-34
2022/11/29 02:49:51;;;;;;;103.70;29.77;;;8.20;99.90;;;;;;4944793;28;95675;-33
2022/11/29 02:52:45;;;;;;;127.93;32.20;;;8.10;99.90;;;;;;4957322;28;94975;-33
2022/11/29 02:55:29;;;;;;;142.73;34.83;;;8.10;99.90;;;;;;4957415;28;93140;-34
2022/11/29 02:58:01;;;;;;;83.40;29.05;;;8.20;99.90;;;;;;4956435;28;94600;-35
2022/11/29 03:00:27;;;;;;;117.88;32.67;;;8.20;99.90;;;;;;4957284;28;94930;-34
2022/11/29 03:03:25;;;;;;;158.02;33.05;;;8.20;99.90;;;;;;4957823;28;93681;-33
2022/11/29 03:06:00;;;;;;;98.00;30.05;;;8.20;99.90;;;;;;4957855;28;94333;-33
2022/11/29 03:09:11;;;;;;;89.07;29.48;;;8.10;99.90;;;;;;4944058;28;94864;-33
2022/11/29 03:11:44;;;;;;;96.88;30.65;;;8.10;99.90;;;;;;4895481;28;95355;-33
2022/11/29 03:14:20;;;;;;;110.82;29.80;;;8.10;99.90;;;;;;4951515;28;95625;-32
2022/11/29 03:17:03;;;;;;;117.43;31.27;;;8.10;99.90;;;;;;4957127;28;93670;-34
2022/11/29 03:19:52;;;;;;;92.85;30.35;;;8.10;99.90;;;;;;4956967;28;94683;-35
2022/11/29 03:22:38;;;;;;;91.38;30.63;;;8.20;99.90;;;;;;4956995;28;94437;-35
2022/11/29 03:25:07;;;;;;;67.85;26.45;;;8.20;99.90;;;;;;4957389;28;94541;-33
2022/11/29 03:27:38;;;;;;;;;;;8.20;99.90;;;;;;4957525;28;93231;-34
2022/11/29 03:30:10;;;;;;;81.82;28.48;;;8.20;99.90;;;;;;4959239;28;94781;-33
2022/11/29 03:33:00;;;;;;;72.45;28.30;;;8.10;99.90;;;;;;4956704;28;93156;-36
2022/11/29 03:35:50;;;;;;;81.80;28.02;;;8.10;99.90;;;;;;4956504;28;93387;-34
2022/11/29 03:38:31;;;;;;;87.43;27.88;;;8.10;99.90;;;;;;4956672;28;93737;-33
2022/11/29 03:41:22;;;;;;;85.57;29.98;;;8.10;99.90;;;;;;4956265;28;95716;-35
2022/11/29 03:44:16;;;;;;;146.93;35.80;;;8.10;99.90;;;;;;4956473;28;95448;-35
2022/11/29 03:46:48;;;;;;;150.77;34.63;;;8.10;99.90;;;;;;4957180;28;92998;-32
2022/11/29 03:49:29;;;;;;;78.35;28.98;;;8.10;99.90;;;;;;4953713;28;93195;-34
2022/11/29 03:52:16;;;;;;;119.75;36.65;;;8.10;99.90;;;;;;4955708;28;95163;-35
2022/11/29 03:55:03;;;;;;;89.93;35.30;;;8.10;99.90;;;;;;4956645;28;94844;-36
2022/11/29 03:58:04;;;;;;;95.88;32.58;;;8.10;99.90;;;;;;4955128;28;93039;-35
2022/11/29 04:00:46;;;;;;;110.10;35.58;;;8.10;99.90;;;;;;4920157;28;93171;-33
2022/11/29 04:03:39;;;;;;;205.45;43.13;;;8.10;99.90;;;;;;4956197;28;96175;-33
2022/11/29 04:06:38;;;;;;;147.50;33.90;;;8.10;99.90;;;;;;4944313;28;94718;-35
2022/11/29 04:09:34;;;;;;;97.80;29.80;;;8.10;99.90;;;;;;4955889;28;95584;-36
2022/11/29 04:12:39;;;;;;;108.53;29.20;;;8.10;99.90;;;;;;4944221;28;93337;-33
2022/11/29 04:15:07;;;;;;;91.00;29.27;;;8.10;99.90;;;;;;4951963;28;95221;-32
2022/11/29 04:17:47;;;;;;;82.28;28.23;;;8.00;99.90;;;;;;4956021;28;94651;-33
2022/11/29 04:20:25;;;;;;;102.75;31.63;;;8.00;99.90;;;;;;4956790;28;94623;-32
2022/11/29 04:23:16;;;;;;;92.47;30.37;;;8.00;99.90;;;;;;4956289;28;94504;-35
2022/11/29 04:26:21;;;;;;;121.93;30.35;;;8.00;99.90;;;;;;4944292;28;95631;-33
2022/11/29 04:28:55;;;;;;;144.13;33.13;;;8.00;99.90;;;;;;4956333;28;94625;-32
2022/11/29 04:31:44;;;;;;;98.90;28.10;;;8.00;99.90;;;;;;4956714;28;94003;-35
2022/11/29 04:34:16;;;;;;;89.88;29.20;;;7.90;99.90;;;;;;4955828;28;94462;-32
2022/11/29 04:37:03;;;;;;;86.45;29.23;;;7.90;99.90;;;;;;4953851;28;95555;-35
2022/11/29 04:40:11;;;;;;;89.70;28.98;;;7.90;99.90;;;;;;4944553;28;95387;-33
2022/11/29 04:42:52;;;;;;;86.80;27.48;;;7.90;99.90;;;;;;4945034;28;94145;-35
2022/11/29 04:45:39;;;;;;;61.25;22.98;;;7.90;99.90;;;;;;4956620;28;93172;-32
2022/11/29 04:48:22;;;;;;;42.28;21.63;;;7.80;99.90;;;;;;4956263;28;95151;-33
2022/11/29 04:51:06;;;;;;;55.88;24.42;;;7.80;99.90;;;;;;4955855;28;94373;-35
2022/11/29 04:53:53;;;;;;;64.55;24.48;;;7.80;99.90;;;;;;4955917;28;94098;-34
2022/11/29 04:56:29;;;;;;;93.85;27.02;;;7.80;99.90;;;;;;4943235;28;91844;-32
2022/11/29 04:58:55;;;;;;;66.55;24.20;;;7.70;99.90;;;;;;4957238;28;95298;-35
2022/11/29 05:01:38;;;;;;;83.35;25.83;;;7.70;99.90;;;;;;4959138;28;94579;-31
2022/11/29 05:04:39;;;;;;;87.90;25.20;;;7.70;99.90;;;;;;4958434;28;95617;-36
2022/11/29 05:07:13;;;;;;;104.45;28.70;;;7.60;99.90;;;;;;4958792;28;94484;-33
2022/11/29 05:10:14;;;;;;;84.43;27.27;;;7.60;99.90;;;;;;4957460;28;93723;-34
2022/11/29 05:13:12;;;;;;;102.28;28.08;;;7.60;99.90;;;;;;4958798;28;94925;-34
2022/11/29 05:16:11;;;;;;;110.85;28.50;;;7.60;99.90;;;;;;4958230;28;93315;-32
2022/11/29 05:18:39;;;;;;;162.80;33.00;;;7.60;99.90;;;;;;4945389;28;94358;-36
2022/11/29 05:21:16;;;;;;;96.28;27.08;;;7.50;99.90;;;;;;4958730;28;94961;-34
2022/11/29 05:24:12;;;;;;;134.90;31.52;;;7.50;99.90;;;;;;4959046;28;94948;-33
2022/11/29 05:26:49;;;;;;;77.55;24.63;;;7.50;99.90;;;;;;4958835;28;94436;-33
2022/11/29 05:29:28;;;;;;;45.90;22.67;;;7.50;99.90;;;;;;4959076;28;93934;-34
2022/11/29 05:32:13;;;;;;;95.57;25.27;;;7.50;99.90;;;;;;4958275;28;95916;-32
2022/11/29 05:34:56;;;;;;;65.45;24.23;;;7.50;99.90;;;;;;4957862;28;95306;-33
2022/11/29 05:37:50;;;;;;;91.05;27.42;;;7.50;99.90;;;;;;4947687;28;92607;-34
2022/11/29 05:40:30;;;;;;;72.50;25.23;;;7.50;99.90;;;;;;4958328;28;93161;-34
2022/11/29 05:43:29;;;;;;;77.97;24.42;;;7.50;99.90;;;;;;4958078;28;95078;-34
2022/11/29 05:46:09;;;;;;;69.78;24.13;;;7.50;99.90;;;;;;4948185;28;94274;-33
2022/11/29 05:48:48;;;;;;;78.85;25.42;;;7.40;99.90;;;;;;4959234;28;95251;-33
2022/11/29 05:51:38;;;;;;;78.53;24.90;;;7.40;99.90;;;;;;4959486;28;92524;-33
2022/11/29 05:54:28;;;;;;;51.92;24.63;;;7.40;99.90;;;;;;4957887;28;94836;-34
2022/11/29 05:57:19;;;;;;;42.40;21.00;;;7.40;99.90;;;;;;4958330;28;94211;-32
2022/11/29 05:59:47;;;;;;;73.25;25.20;;;7.40;99.90;;;;;;4957661;28;93112;-33
2022/11/29 06:02:25;;;;;;;84.15;25.02;;;7.40;99.90;;;;;;4958304;28;94397;-34
2022/11/29 06:05:12;;;;;;;59.97;24.13;;;7.40;99.90;;;;;;4957605;28;95119;-36
2022/11/29 06:07:54;;;;;;;52.00;23.05;;;7.40;99.90;;;;;;4957550;28;94271;-35
2022/11/29 06:10:28;;;;;;;47.78;25.17;;;7.40;99.90;;;;;;4956944;28;93542;-34
2022/11/29 06:13:20;;;;;;;91.50;25.77;;;7.40;99.90;;;;;;4957994;28;94652;-33
2022/11/29 06:16:05;;;;;;;104.80;28.25;;;7.40;99.90;;;;;;4957695;28;94764;-32
2022/11/29 06:19:03;;;;;;;97.90;28.05;;;7.40;99.90;;;;;;4948081;28;94349;-32
2022/11/29 06:21:49;;;;;;;62.85;24.58;;;7.40;99.90;;;;;;4955601;28;93318;-33
2022/11/29 06:24:29;;;;;;;82.25;26.17;;;7.40;99.90;;;;;;4957491;28;94304;-33
2022/11/29 06:27:24;;;;;;;85.50;27.88;;;7.40;99.90;;;;;;4957478;28;95499;-32
2022/11/29 06:30:02;;;;;;;81.35;25.95;;;7.40;99.90;;;;;;4953529;28;97426;-32
2022/11/29 06:32:45;;;;;;;79.18;25.23;;;7.40;99.90;;;;;;4957369;28;92478;-33
2022/11/29 06:35:34;;;;;;;51.15;22.20;;;7.40;99.90;;;;;;4958208;28;92726;-34
2022/11/29 06:38:19;;;;;;;61.53;24.08;;;7.40;99.90;;;;;;4957890;28;95100;-36
2022/11/29 06:40:45;;;;;;;63.17;22.15;;;7.30;99.90;;;;;;4956525;28;95205;-34
2022/11/29 06:43:11;;;;;;;67.32;24.45;;;7.30;99.90;;;;;;4958159;28;93097;-32
2022/11/29 06:45:38;;;;;;;48.85;21.75;;;7.30;99.90;;;;;;4958539;28;92779;-33
2022/11/29 06:48:08;;;;;;;69.18;23.55;;;7.30;99.90;;;;;;4957333;28;94618;-33
2022/11/29 06:50:55;;;;;;;84.55;23.13;;;7.30;99.90;;;;;;4957717;28;94167;-32
2022/11/29 06:53:30;;;;;;;49.63;24.60;;;7.30;99.90;;;;;;4950075;28;94354;-34
2022/11/29 06:56:25;;;;;;;51.42;22.55;;;7.30;99.90;;;;;;4958332;28;94202;-35
2022/11/29 06:59:34;;;;;;;51.63;21.92;;;7.30;99.90;;;;;;4954438;28;95922;-33
2022/11/29 07:02:11;;;;;;;58.05;22.25;;;7.30;99.90;;;;;;4952999;28;94845;-34
2022/11/29 07:04:59;;;;;;;42.15;22.77;;;7.30;99.90;;;;;;4957515;28;92266;-33
2022/11/29 07:07:24;;;;;;;40.37;21.80;;;7.30;99.90;;;;;;4957562;28;94513;-36
2022/11/29 07:09:55;;;;;;;52.45;21.38;;;7.30;99.90;;;;;;4956919;28;95466;-34
2022/11/29 07:12:21;;;;;;;57.90;22.52;;;7.30;99.90;;;;;;4958348;28;93526;-33
2022/11/29 07:14:47;;;;;;;51.00;21.15;;;7.30;99.90;;;;;;4957853;28;93536;-35
2022/11/29 07:17:37;;;;;;;66.00;23.73;;;7.30;99.90;;;;;;4957152;28;92124;-33
2022/11/29 07:20:11;;;;;;;41.85;23.00;;;7.30;99.90;;;;;;4956646;28;95806;-32
2022/11/29 07:23:20;;;;;;;58.28;24.10;;;7.30;99.90;;;;;;4955810;28;95986;-33
2022/11/29 07:26:08;;;;;;;43.10;22.08;;;7.30;99.90;;;;;;4947275;28;94653;-31
2022/11/29 07:29:04;;;;;;;42.67;21.75;;;7.30;99.90;;;;;;4956321;28;92496;-35
2022/11/29 07:32:09;;;;;;;79.10;24.73;;;7.30;99.90;;;;;;4956113;28;94817;-35
2022/11/29 07:35:00;;;;;;;69.20;25.40;;;7.30;99.90;;;;;;4956302;28;95613;-34
2022/11/29 07:37:34;;;;;;;52.35;22.75;;;7.40;99.90;;;;;;4945313;28;93058;-37
2022/11/29 07:40:19;;;;;;;50.47;21.63;;;7.40;99.90;;;;;;4957263;28;94278;-33
2022/11/29 07:43:00;;;;;;;45.90;21.95;;;7.40;99.90;;;;;;4955761;28;95071;-36
2022/11/29 07:45:32;;;;;;;80.85;25.23;;;7.30;99.90;;;;;;4955979;28;96417;-35
2022/11/29 07:47:58;;;;;;;47.08;22.90;;;7.40;99.90;;;;;;4956437;28;94563;-33
2022/11/29 07:50:25;;;;;;;51.65;26.23;;;7.40;99.90;;;;;;4956294;28;94296;-37
2022/11/29 07:52:51;;;;;;;55.28;23.00;;;7.40;99.90;;;;;;4956290;28;94553;-34
2022/11/29 07:55:19;;;;;;;50.03;23.98;;;7.40;99.90;;;;;;4956671;28;94679;-33
2022/11/29 07:57:45;;;;;;;43.53;24.80;;;7.40;99.90;;;;;;4956703;28;93988;-34
2022/11/29 08:00:11;;;;;;;52.40;22.98;;;7.40;99.90;;;;;;4956380;28;92651;-34
2022/11/29 08:02:37;;;;;;;58.42;24.67;;;7.40;99.90;;;;;;4956599;28;95282;-34
2022/11/29 08:05:02;;;;;;;71.05;25.00;;;7.50;99.90;;;;;;4956356;28;94541;-33
2022/11/29 08:07:28;;;;;;;45.67;23.92;;;7.50;99.90;;;;;;4953788;28;93117;-33
2022/11/29 08:09:54;;;;;;;62.10;26.23;;;7.50;99.90;;;;;;4965963;28;92342;-32
2022/11/29 08:12:20;;;;;;;71.20;27.70;;;7.50;99.90;;;;;;4955850;28;95411;-34
2022/11/29 08:14:45;;;;;;;48.20;25.13;;;7.50;99.90;;;;;;4954763;28;95233;-32
2022/11/29 08:17:11;;;;;;;93.35;29.60;;;7.50;99.90;;;;;;4954316;28;93383;-33
2022/11/29 08:19:36;;;;;;;77.32;25.77;;;7.50;99.90;;;;;;4947618;28;93208;-35
2022/11/29 08:22:02;;;;;;;71.72;25.52;;;7.50;99.90;;;;;;4953830;28;94981;-35
2022/11/29 08:24:27;;;;;;;78.93;26.50;;;7.50;99.90;;;;;;4953855;28;94474;-37
2022/11/29 08:26:53;;;;;;;56.03;27.45;;;7.50;99.90;;;;;;4955073;28;94125;-34
2022/11/29 08:29:19;;;;;;;48.50;24.55;;;7.50;99.90;;;;;;4960978;28;92812;-35
2022/11/29 08:31:44;;;;;;;68.60;25.95;;;7.50;99.90;;;;;;4955237;28;94600;-34
2022/11/29 08:34:10;;;;;;;42.05;22.67;;;7.50;99.90;;;;;;4956560;28;95060;-33
2022/11/29 08:36:37;;;;;;;80.03;25.63;;;7.50;99.90;;;;;;4957614;28;94544;-35
2022/11/29 08:39:03;;;;;;;44.63;21.23;;;7.50;99.90;;;;;;4961981;28;93130;-33
2022/11/29 08:41:29;;;;;;;63.58;24.05;;;7.50;99.90;;;;;;4961820;28;94121;-32
2022/11/29 08:43:55;;;;;;;44.88;23.13;;;7.50;99.90;;;;;;4962418;28;95205;-32
2022/11/29 08:46:20;;;;;;;49.55;22.50;;;7.50;99.90;;;;;;4961585;28;92903;-34
2022/11/29 08:48:47;;;;;;;40.42;21.98;;;7.50;99.90;;;;;;4959571;28;93116;-39
2022/11/29 08:51:13;;;;;;;51.20;21.98;;;7.50;99.90;;;;;;4959234;28;95412;-35
2022/11/29 08:53:42;;;;;;;44.38;21.67;;;7.50;99.90;;;;;;4958919;28;94481;-34
2022/11/29 08:56:17;;;;;;;;;;;7.50;99.90;;;;;;4958823;28;94144;-34
2022/11/29 08:58:44;;;;;;;59.13;23.83;;;7.50;99.90;;;;;;4959130;28;92473;-33
2022/11/29 09:01:14;;;;;;;38.17;21.65;;;7.50;99.90;;;;;;4956858;28;96270;-35
2022/11/29 09:04:01;;;;;;;48.03;23.33;;;7.50;99.90;;;;;;4958481;28;95515;-34
2022/11/29 09:06:33;;;;;;;29.85;20.20;;;7.50;99.90;;;;;;4967518;28;93023;-33
2022/11/29 09:09:00;;;;;;;48.85;21.08;;;7.50;99.90;;;;;;4965745;28;94176;-32
2022/11/29 09:11:28;;;;;;;30.98;19.13;;;7.50;99.90;;;;;;4968089;28;94717;-33
2022/11/29 09:13:59;;;;;;;36.30;20.17;;;7.50;99.90;;;;;;4968415;28;95048;-33
2022/11/29 09:16:28;;;;;;;36.05;19.23;;;7.50;99.90;;;;;;4966414;28;93719;-34
2022/11/29 09:18:54;;;;;;;53.17;22.25;;;7.60;99.90;;;;;;5014423;23;93398;-34
2022/11/29 09:21:22;;;;;;;31.38;21.27;;;7.60;99.90;;;;;;4965065;28;93333;-33
2022/11/29 09:23:49;;;;;;;48.42;23.13;;;7.60;99.90;;;;;;4968613;28;94535;-33
2022/11/29 09:26:18;;;;;;;35.70;21.83;;;7.70;99.90;;;;;;4968677;28;93346;-32
2022/11/29 09:28:44;;;;;;;;;;;7.60;99.90;;;;;;4969714;28;93934;-35
2022/11/29 09:31:16;;;;;;;34.28;21.17;;;7.70;99.90;;;;;;4962166;28;94270;-36
2022/11/29 09:33:42;;;;;;;37.88;19.60;;;7.70;99.90;;;;;;4958233;28;94527;-33
2022/11/29 09:36:09;;;;;;;39.70;21.63;;;7.70;99.90;;;;;;4958691;28;93016;-36
2022/11/29 09:38:35;;;;;;;35.20;20.27;;;7.70;99.90;;;;;;4964809;28;93560;-31
2022/11/29 09:41:24;;;;;;;34.28;21.20;;;7.80;99.90;;;;;;4964971;28;94726;-33
2022/11/29 09:43:59;;;;;;;38.60;21.30;;;7.80;99.90;;;;;;4917567;28;94211;-33
2022/11/29 09:46:43;;;;;;;33.63;20.05;;;7.80;99.90;;;;;;4960183;28;93371;-34
2022/11/29 09:49:33;;;;;;;43.85;21.80;;;7.80;99.90;;;;;;4959463;28;93532;-35
2022/11/29 09:51:59;;;;;;;36.05;20.27;;;7.90;99.90;;;;;;4959338;28;95832;-32
2022/11/29 09:55:09;;;;;;;32.97;19.95;;;7.80;99.90;;;;;;4961164;28;95114;-35
2022/11/29 09:57:37;;;;;;;31.30;19.23;;;7.90;99.90;;;;;;4948852;28;93256;-34
2022/11/29 10:00:05;;;;;;;34.20;20.88;;;7.90;99.90;;;;;;4955924;28;93300;-37
2022/11/29 10:02:44;;;;;;;38.65;19.88;;;7.90;99.90;;;;;;4955321;28;95270;-34
2022/11/29 10:05:15;;;;;;;;;;;7.90;99.90;;;;;;4956412;28;95049;-35
2022/11/29 10:08:18;;;;;;;27.17;18.33;;;7.90;99.90;;;;;;4958487;28;93110;-35
2022/11/29 10:10:46;;;;;;;31.50;20.50;;;8.00;99.90;;;;;;4955068;28;93536;-34
2022/11/29 10:13:16;;;;;;;31.60;19.73;;;8.00;99.90;;;;;;4955788;28;95502;-34
2022/11/29 10:15:45;;;;;;;27.67;18.90;;;8.00;99.90;;;;;;4956376;28;94802;-36
2022/11/29 10:18:22;;;;;;;26.15;17.83;;;8.00;99.90;;;;;;4955865;28;94412;-34
2022/11/29 10:20:50;;;;;;;28.30;17.95;;;8.00;99.90;;;;;;4955413;28;93193;-34
2022/11/29 10:23:21;;;;;;;39.33;20.25;;;8.10;99.90;;;;;;4955478;28;94720;-35
2022/11/29 10:25:50;;;;;;;30.52;19.17;;;8.10;99.90;;;;;;4955748;28;95136;-34
2022/11/29 10:28:19;;;;;;;32.33;18.60;;;8.10;99.90;;;;;;4955768;28;93291;-35
2022/11/29 10:30:45;;;;;;;37.75;19.20;;;8.10;99.90;;;;;;4955918;28;95233;-33
2022/11/29 10:33:24;;;;;;;41.72;19.92;;;8.20;99.90;;;;;;4955549;28;93836;-34
2022/11/29 10:35:55;;;;;;;29.83;18.45;;;8.20;99.90;;;;;;4956099;28;94244;-36
2022/11/29 10:38:22;;;;;;;31.85;19.05;;;8.30;99.90;;;;;;4955278;28;94031;-34
2022/11/29 10:40:53;;;;;;;29.00;17.40;;;8.30;99.90;;;;;;4956341;28;93660;-34
2022/11/29 10:43:19;;;;;;;27.92;17.52;;;8.30;99.90;;;;;;4955631;28;95776;-32
2022/11/29 10:45:49;;;;;;;28.67;16.10;;;8.40;99.90;;;;;;4955857;28;95244;-32
2022/11/29 10:48:18;;;;;;;22.13;18.17;;;8.40;99.90;;;;;;4962471;28;93071;-33
2022/11/29 10:50:47;;;;;;;23.30;17.20;;;8.40;99.90;;;;;;4963448;28;93224;-35
2022/11/29 10:53:23;;;;;;;29.58;18.27;;;8.40;99.90;;;;;;4961116;28;95343;-33
2022/11/29 10:55:52;;;;;;;29.02;16.00;;;8.40;99.90;;;;;;4955361;28;94610;-32
2022/11/29 10:58:24;;;;;;;28.20;18.30;;;8.50;99.90;;;;;;4958466;28;93119;-34
2022/11/29 11:00:59;;;;;;;32.13;17.38;;;8.50;99.90;;;;;;4958259;28;92811;-32
2022/11/29 11:03:48;;;;;;;29.40;15.75;;;8.50;99.90;;;;;;4962813;28;94581;-32
2022/11/29 11:06:17;;;;;;;35.15;18.77;;;8.60;99.90;;;;;;4960805;28;94639;-33
2022/11/29 11:09:13;;;;;;;25.65;16.23;;;8.60;99.90;;;;;;4961662;28;94070;-32
2022/11/29 11:11:39;;;;;;;24.83;16.83;;;8.60;99.90;;;;;;4960123;28;93481;-33
2022/11/29 11:14:18;;;;;;;26.77;16.63;;;8.60;99.90;;;;;;4963872;28;95497;-32
2022/11/29 11:16:44;;;;;;;25.05;16.00;;;8.60;99.90;;;;;;4955890;28;93886;-34
2022/11/29 11:19:31;;;;;;;22.00;14.75;;;8.50;99.90;;;;;;4954833;28;94336;-35
2022/11/29 11:22:01;;;;;;;23.98;16.08;;;8.50;99.90;;;;;;4955132;28;94519;-33
2022/11/29 11:24:51;;;;;;;23.70;14.65;;;8.50;99.90;;;;;;4954322;28;94627;-32
2022/11/29 11:27:28;;;;;;;27.17;15.25;;;8.50;99.90;;;;;;4943884;28;94606;-35
2022/11/29 11:29:54;;;;;;;27.53;14.33;;;8.50;99.90;;;;;;4955158;28;93183;-33
2022/11/29 11:32:20;;;;;;;23.20;13.98;;;8.40;99.90;;;;;;4954391;28;94794;-34
2022/11/29 11:35:00;;;;;;;26.67;15.10;;;8.40;99.90;;;;;;4953409;28;95568;-34
2022/11/29 11:37:34;;;;;;;28.05;14.88;;;8.40;99.90;;;;;;4943486;28;93669;-31
2022/11/29 11:40:18;;;;;;;21.23;13.75;;;8.40;99.90;;;;;;4955853;28;94792;-33
2022/11/29 11:42:45;;;;;;;25.73;14.85;;;8.40;99.90;;;;;;4964626;28;92963;-32
2022/11/29 11:45:10;;;;;;;22.90;15.02;;;8.40;99.90;;;;;;4964000;28;94745;-32
2022/11/29 11:47:43;;;;;;;21.10;14.05;;;8.40;99.90;;;;;;4965189;28;94965;-32
2022/11/29 11:50:15;;;;;;;24.35;15.48;;;8.40;99.90;;;;;;4965187;28;95073;-32
2022/11/29 11:52:53;;;;;;;24.85;13.77;;;8.40;99.90;;;;;;4963046;28;92288;-33
2022/11/29 11:55:28;;;;;;;24.75;12.85;;;8.40;99.90;;;;;;4962992;28;94419;-34
2022/11/29 11:57:57;;;;;;;26.30;14.85;;;8.50;99.90;;;;;;4961028;28;93989;-31
2022/11/29 12:00:48;;;;;;;23.95;13.75;;;8.50;99.90;;;;;;4959339;28;94038;-32
2022/11/29 12:03:22;;;;;;;29.30;15.35;;;8.50;99.90;;;;;;4964972;28;92669;-32
2022/11/29 12:05:51;;;;;;;26.73;13.25;;;8.50;99.90;;;;;;4966410;28;94844;-34
2022/11/29 12:08:17;;;;;;;;;;;8.50;99.90;;;;;;4964586;28;95219;-34
2022/11/29 12:10:44;;;;;;;21.35;14.73;;;8.50;99.90;;;;;;4967767;28;92628;-32
2022/11/29 12:13:23;;;;;;;22.53;15.33;;;8.50;99.90;;;;;;4967773;28;92539;-32
2022/11/29 12:15:50;;;;;;;25.08;13.98;;;8.50;99.90;;;;;;4966355;28;94578;-32
2022/11/29 12:18:25;;;;;;;34.50;15.93;;;8.50;99.90;;;;;;4962733;28;94754;-32
2022/11/29 12:20:57;;;;;;;33.63;15.57;;;8.50;99.90;;;;;;4953771;28;93511;-32
2022/11/29 12:23:29;;;;;;;25.63;14.07;;;8.50;99.90;;;;;;4953518;28;93558;-34
2022/11/29 12:26:10;;;;;;;27.27;13.82;;;8.50;99.90;;;;;;4952786;28;95696;-34
2022/11/29 12:28:39;;;;;;;24.58;12.90;;;8.50;99.90;;;;;;4953766;28;95888;-35
2022/11/29 12:31:35;;;;;;;28.83;13.73;;;8.50;99.90;;;;;;4954425;28;94325;-33
2022/11/29 12:34:06;;;;;;;40.72;15.20;;;8.50;99.90;;;;;;4953405;28;92250;-32
2022/11/29 12:36:51;;;;;;;27.90;15.52;;;8.50;99.90;;;;;;4953413;28;95127;-32
2022/11/29 12:39:35;;;;;;;33.17;16.27;;;8.50;99.90;;;;;;4953934;28;94943;-31
2022/11/29 12:42:11;;;;;;;29.95;14.80;;;8.50;99.90;;;;;;4954454;28;94250;-34
2022/11/29 12:44:58;;;;;;;24.83;14.65;;;8.50;99.90;;;;;;4954485;28;93868;-34
2022/11/29 12:47:48;;;;;;;33.80;14.40;;;8.50;99.90;;;;;;4960560;28;95370;-34
2022/11/29 12:50:20;;;;;;;32.63;14.68;;;8.60;99.90;;;;;;4963119;28;94782;-33
2022/11/29 12:53:17;;;;;;;26.85;14.05;;;8.60;99.90;;;;;;4955962;28;93104;-31
2022/11/29 12:55:48;;;;;;;29.00;14.90;;;8.60;99.90;;;;;;4961033;28;93115;-34
2022/11/29 12:58:32;;;;;;;30.05;15.13;;;8.60;99.90;;;;;;4964991;28;94789;-32
2022/11/29 13:01:10;;;;;;;26.90;14.35;;;8.60;99.90;;;;;;4966816;28;94734;-32
2022/11/29 13:03:50;;;;;;;36.97;15.60;;;8.60;99.90;;;;;;4964518;28;92848;-34
2022/11/29 13:06:31;;;;;;;28.08;15.32;;;8.60;99.90;;;;;;4956331;28;93275;-33
2022/11/29 13:09:25;;;;;;;31.13;16.45;;;8.70;99.90;;;;;;4962644;28;94943;-34
2022/11/29 13:12:12;;;;;;;26.00;14.88;;;8.70;99.90;;;;;;4960717;28;93703;-32
2022/11/29 13:14:59;;;;;;;22.00;14.52;;;8.70;99.90;;;;;;4964569;28;93084;-33
2022/11/29 13:17:54;;;;;;;27.10;14.35;;;8.70;99.90;;;;;;4957777;28;93348;-33
2022/11/29 13:20:30;;;;;;;41.10;16.95;;;8.70;99.90;;;;;;4958995;28;95572;-35
2022/11/29 13:23:26;;;;;;;36.33;15.65;;;8.70;99.90;;;;;;4965632;28;95081;-32
2022/11/29 13:25:53;;;;;;;34.88;15.75;;;8.70;99.90;;;;;;4962398;28;92809;-32